Time;durP1;ratioP1;P1;durP2;ratioP2;P2;SDS_P1;SDS_P2;PMS_P1;PMS_P2;Temp;Humidity;BMP_temperature;BMP_pressure;BME280_temperature;BME280_humidity;BME280_pressure;Samples;Min_cycle;Max_cycle;Signal;HPM_P1;HPM_P2
2023/12/27 00:00:12;;;;;;;3.03;1.90;;;;;;;;;;6279064;22;20104;-93
2023/12/27 00:02:38;;;;;;;3.67;2.30;;;;;;;;;;6278996;22;20000;-94
2023/12/27 00:05:08;;;;;;;2.45;2.20;;;;;;;;;;6278580;22;20107;-93
2023/12/27 00:10:39;;;;;;;2.97;2.30;;;;;;;;;;6279244;22;20101;-95
2023/12/27 00:13:05;;;;;;;3.55;2.05;;;;;;;;;;6278271;22;20239;-96
2023/12/27 00:15:34;;;;;;;4.03;2.78;;;;;;;;;;6253293;22;20015;-95
2023/12/27 00:18:04;;;;;;;5.53;2.20;;;;;;;;;;6278036;22;20042;-96
2023/12/27 00:23:19;;;;;;;5.70;2.28;;;;;;;;;;6279669;22;20341;-96
2023/12/27 00:25:48;;;;;;;2.72;2.00;;;;;;;;;;6278281;22;20015;-95
2023/12/27 00:28:30;;;;;;;2.58;2.13;;;;;;;;;;6252636;22;20004;-93
2023/12/27 00:31:05;;;;;;;3.78;2.08;;;;;;;;;;6278293;22;20003;-95
2023/12/27 00:33:31;;;;;;;2.72;1.80;;;;;;;;;;6278199;22;20004;-95
2023/12/27 00:36:04;;;;;;;2.85;2.03;;;;;;;;;;6277958;22;20007;-92
2023/12/27 00:38:30;;;;;;;3.58;2.47;;;;;;;;;;6278202;22;20065;-95
2023/12/27 00:41:26;;;;;;;3.17;2.17;;;;;;;;;;6270071;22;20551;-92
2023/12/27 00:47:04;;;;;;;2.90;1.88;;;;;;;;;;6157293;23;20383;-94
2023/12/27 00:58:26;;;;;;;5.50;2.72;;;;;;;;;;6248547;23;20046;-95
2023/12/27 01:00:55;;;;;;;4.10;2.70;;;;;;;;;;6248111;23;20019;-95
2023/12/27 01:03:21;;;;;;;5.72;2.30;;;;;;;;;;6246966;23;20429;-96
2023/12/27 01:05:50;;;;;;;3.55;2.35;;;;;;;;;;6246720;23;20013;-95
2023/12/27 01:08:22;;;;;;;3.13;2.03;;;;;;;;;;6247285;23;20004;-96
2023/12/27 01:10:55;;;;;;;3.38;2.42;;;;;;;;;;6229856;23;20024;-96
2023/12/27 01:13:24;;;;;;;3.67;1.92;;;;;;;;;;6247642;23;20012;-96
2023/12/27 01:15:50;;;;;;;3.63;2.45;;;;;;;;;;6247175;23;20007;-96
2023/12/27 01:18:22;;;;;;;4.75;2.08;;;;;;;;;;6242966;23;20095;-95
2023/12/27 01:20:48;;;;;;;2.50;1.88;;;;;;;;;;6247085;23;20417;-96
2023/12/27 01:23:23;;;;;;;2.25;2.00;;;;;;;;;;6246783;23;20015;-94
2023/12/27 01:26:17;;;;;;;3.28;1.63;;;;;;;;;;6247289;23;20079;-94
2023/12/27 01:28:43;;;;;;;1.92;1.65;;;;;;;;;;6247034;23;20012;-96
2023/12/27 01:31:16;;;;;;;2.80;1.92;;;;;;;;;;6246953;23;20008;-94
2023/12/27 01:33:42;;;;;;;2.95;1.42;;;;;;;;;;6247130;23;20099;-96
2023/12/27 01:36:08;;;;;;;2.92;1.92;;;;;;;;;;6246917;23;20004;-92
2023/12/27 01:41:45;;;;;;;4.57;1.90;;;;;;;;;;6248623;23;20070;-96
2023/12/27 01:44:11;;;;;;;3.50;1.20;;;;;;;;;;6246998;23;20038;-95
2023/12/27 01:46:38;;;;;;;2.50;1.85;;;;;;;;;;6246643;23;20330;-95
2023/12/27 01:49:07;;;;;;;2.28;1.65;;;;;;;;;;6246986;23;20075;-95
2023/12/27 01:51:40;;;;;;;2.58;1.98;;;;;;;;;;6246621;23;20327;-96
2023/12/27 01:54:06;;;;;;;3.42;2.28;;;;;;;;;;6246593;23;20011;-95
2023/12/27 01:56:32;;;;;;;2.85;1.17;;;;;;;;;;6246579;23;20012;-96
2023/12/27 01:59:08;;;;;;;1.52;1.10;;;;;;;;;;6247285;23;20012;-95
2023/12/27 02:01:41;;;;;;;2.70;1.30;;;;;;;;;;6246839;23;20084;-94
2023/12/27 02:04:12;;;;;;;1.73;1.27;;;;;;;;;;6222436;23;20012;-96
2023/12/27 02:06:42;;;;;;;3.45;1.25;;;;;;;;;;6244914;23;20004;-95
2023/12/27 02:12:35;;;;;;;2.72;1.10;;;;;;;;;;6247993;23;20069;-95
2023/12/27 02:15:01;;;;;;;2.88;1.80;;;;;;;;;;6246696;23;20444;-96
2023/12/27 02:17:31;;;;;;;3.38;2.40;;;;;;;;;;6246897;23;20015;-96
2023/12/27 02:20:07;;;;;;;4.75;2.95;;;;;;;;;;6247293;23;20012;-96
2023/12/27 02:22:48;;;;;;;2.05;1.40;;;;;;;;;;6246760;23;20430;-95
2023/12/27 02:25:15;;;;;;;3.30;1.98;;;;;;;;;;6246828;23;20130;-96
2023/12/27 02:27:47;;;;;;;2.10;1.85;;;;;;;;;;6269497;22;20004;-94
2023/12/27 02:30:23;;;;;;;3.03;2.27;;;;;;;;;;6268826;22;20039;-96
2023/12/27 02:32:50;;;;;;;3.83;1.73;;;;;;;;;;6246636;23;20030;-96
2023/12/27 02:35:16;;;;;;;5.05;2.85;;;;;;;;;;6246766;23;20139;-95
2023/12/27 02:37:46;;;;;;;5.80;3.08;;;;;;;;;;6246621;23;19996;-95
2023/12/27 02:40:12;;;;;;;2.83;1.83;;;;;;;;;;6250901;22;20419;-95
2023/12/27 02:42:42;;;;;;;3.85;2.10;;;;;;;;;;6251375;22;20086;-95
2023/12/27 02:45:11;;;;;;;1.52;1.13;;;;;;;;;;6251073;22;20004;-95
2023/12/27 02:47:37;;;;;;;3.17;1.70;;;;;;;;;;6251150;22;20049;-93
2023/12/27 02:50:10;;;;;;;2.17;1.38;;;;;;;;;;6271522;22;20052;-92
2023/12/27 02:52:39;;;;;;;2.28;1.73;;;;;;;;;;6251090;22;20007;-95
2023/12/27 02:55:17;;;;;;;2.28;1.30;;;;;;;;;;6250668;22;19999;-94
2023/12/27 02:57:43;;;;;;;2.30;1.30;;;;;;;;;;6251216;22;20035;-95
2023/12/27 03:00:21;;;;;;;2.10;1.42;;;;;;;;;;6251312;22;20043;-94
2023/12/27 03:02:51;;;;;;;2.13;1.80;;;;;;;;;;6251022;22;20058;-94
2023/12/27 03:05:20;;;;;;;1.90;1.50;;;;;;;;;;6250684;22;20141;-92
2023/12/27 03:07:49;;;;;;;2.38;1.88;;;;;;;;;;6250955;22;20000;-94
2023/12/27 03:10:18;;;;;;;2.75;2.10;;;;;;;;;;6250947;22;20007;-95
2023/12/27 03:12:44;;;;;;;2.10;1.50;;;;;;;;;;6251244;22;20004;-94
2023/12/27 03:15:12;;;;;;;2.33;1.80;;;;;;;;;;6251518;22;20453;-96
2023/12/27 03:17:41;;;;;;;2.20;1.50;;;;;;;;;;6250845;22;20038;-95
2023/12/27 03:20:17;;;;;;;2.42;1.30;;;;;;;;;;6251138;22;20018;-95
2023/12/27 03:22:43;;;;;;;2.05;1.77;;;;;;;;;;6251583;22;20038;-95
2023/12/27 03:25:18;;;;;;;4.28;1.85;;;;;;;;;;6251237;22;20004;-95
2023/12/27 03:27:47;;;;;;;2.30;1.67;;;;;;;;;;6251024;22;20003;-95
2023/12/27 03:30:16;;;;;;;4.45;2.28;;;;;;;;;;6232175;23;20265;-93
2023/12/27 03:32:52;;;;;;;2.97;2.38;;;;;;;;;;6225095;23;20015;-92
2023/12/27 03:35:21;;;;;;;2.40;2.20;;;;;;;;;;6246094;23;20023;-95
2023/12/27 03:37:50;;;;;;;3.05;1.73;;;;;;;;;;6245770;23;20004;-95
2023/12/27 03:40:17;;;;;;;3.05;2.38;;;;;;;;;;6245544;23;20013;-95
2023/12/27 03:42:49;;;;;;;2.22;1.30;;;;;;;;;;6245908;23;20098;-94
2023/12/27 03:45:17;;;;;;;2.28;1.80;;;;;;;;;;6245688;23;20418;-96
2023/12/27 03:47:44;;;;;;;3.03;1.50;;;;;;;;;;6246008;23;20008;-95
2023/12/27 03:50:11;;;;;;;2.10;1.73;;;;;;;;;;6246149;23;20015;-95
2023/12/27 03:52:37;;;;;;;2.80;2.00;;;;;;;;;;6246224;23;20006;-95
2023/12/27 03:55:04;;;;;;;2.75;2.55;;;;;;;;;;6245809;23;20008;-96
2023/12/27 03:57:30;;;;;;;2.92;2.33;;;;;;;;;;6246523;23;20058;-94
2023/12/27 03:59:59;;;;;;;2.90;2.17;;;;;;;;;;6246173;23;20047;-95
2023/12/27 04:03:11;;;;;;;2.95;2.45;;;;;;;;;;6246205;23;20087;-95
2023/12/27 04:07:51;;;;;;;2.30;1.42;;;;;;;;;;6272907;22;20007;-91
2023/12/27 04:13:05;;;;;;;1.75;1.25;;;;;;;;;;6247356;23;19926;-95
2023/12/27 04:15:34;;;;;;;2.30;1.50;;;;;;;;;;6220629;23;20004;-95
2023/12/27 04:21:32;;;;;;;1.90;1.25;;;;;;;;;;6125066;23;20017;-96
2023/12/27 04:24:04;;;;;;;4.00;1.60;;;;;;;;;;6125157;23;20034;-95
2023/12/27 04:26:30;;;;;;;3.03;1.30;;;;;;;;;;6124937;23;20446;-94
2023/12/27 04:28:56;;;;;;;2.40;1.60;;;;;;;;;;6124870;23;20009;-94
2023/12/27 04:31:22;;;;;;;3.53;1.70;;;;;;;;;;6125288;23;20006;-95
2023/12/27 04:33:57;;;;;;;2.45;1.83;;;;;;;;;;6121501;23;20006;-92
2023/12/27 04:36:26;;;;;;;2.80;1.90;;;;;;;;;;6125214;23;20006;-95
2023/12/27 04:38:58;;;;;;;2.55;1.33;;;;;;;;;;6125351;23;20037;-94
2023/12/27 04:44:30;;;;;;;2.00;1.38;;;;;;;;;;6125227;23;20447;-94
2023/12/27 04:46:56;;;;;;;2.13;1.60;;;;;;;;;;6126758;23;20458;-95
2023/12/27 04:49:22;;;;;;;1.73;1.10;;;;;;;;;;6126789;23;20002;-95
2023/12/27 04:51:48;;;;;;;3.40;1.38;;;;;;;;;;6126526;23;20021;-92
2023/12/27 04:54:17;;;;;;;2.05;1.70;;;;;;;;;;6126529;23;20017;-95
2023/12/27 04:56:43;;;;;;;4.20;1.52;;;;;;;;;;6155628;23;20406;-94
2023/12/27 04:59:19;;;;;;;1.80;1.23;;;;;;;;;;6220194;23;20028;-95
2023/12/27 05:01:57;;;;;;;3.03;1.60;;;;;;;;;;6222131;23;20005;-92
2023/12/27 05:04:26;;;;;;;1.88;1.30;;;;;;;;;;6221814;23;20026;-95
2023/12/27 05:13:15;;;;;;;2.10;1.40;;;;;;;;;;6218474;23;20043;-95
2023/12/27 05:15:41;;;;;;;2.13;1.10;;;;;;;;;;6242525;22;20009;-95
2023/12/27 05:18:08;;;;;;;2.00;1.10;;;;;;;;;;6241909;22;20499;-95
2023/12/27 05:20:34;;;;;;;3.40;1.40;;;;;;;;;;6242152;22;20008;-95
2023/12/27 05:23:00;;;;;;;2.40;1.70;;;;;;;;;;6242231;22;20445;-94
2023/12/27 05:25:27;;;;;;;2.22;1.27;;;;;;;;;;6242043;22;20431;-94
2023/12/27 05:27:53;;;;;;;4.25;1.70;;;;;;;;;;6242164;22;20354;-95
2023/12/27 05:30:19;;;;;;;2.47;1.40;;;;;;;;;;6242789;22;20008;-96
2023/12/27 05:32:45;;;;;;;2.25;1.60;;;;;;;;;;6241825;22;20091;-95
2023/12/27 05:35:16;;;;;;;3.78;2.60;;;;;;;;;;6242094;22;20024;-95
2023/12/27 05:37:42;;;;;;;2.85;1.40;;;;;;;;;;6242567;22;20000;-95
2023/12/27 05:40:08;;;;;;;2.92;1.50;;;;;;;;;;6242289;22;20063;-94
2023/12/27 05:42:35;;;;;;;5.55;1.50;;;;;;;;;;6243959;22;20089;-95
2023/12/27 05:45:01;;;;;;;4.60;1.30;;;;;;;;;;6244657;22;19997;-93
2023/12/27 05:47:56;;;;;;;3.22;1.50;;;;;;;;;;6262204;22;20076;-95
2023/12/27 05:50:23;;;;;;;1.60;1.20;;;;;;;;;;6241885;22;20422;-95
2023/12/27 05:52:49;;;;;;;2.38;1.50;;;;;;;;;;6241467;22;20008;-94
2023/12/27 05:55:29;;;;;;;3.88;1.58;;;;;;;;;;6241894;22;20032;-92
2023/12/27 05:57:55;;;;;;;3.22;1.90;;;;;;;;;;6241370;22;20032;-95
2023/12/27 06:00:24;;;;;;;2.30;1.35;;;;;;;;;;6241995;22;20074;-92
2023/12/27 06:03:10;;;;;;;4.78;2.13;;;;;;;;;;6241573;22;20143;-96
2023/12/27 06:08:58;;;;;;;2.15;1.40;;;;;;;;;;6247711;23;20088;-94
2023/12/27 06:11:27;;;;;;;2.13;1.13;;;;;;;;;;6221267;23;20008;-96
2023/12/27 06:13:59;;;;;;;2.85;1.48;;;;;;;;;;6221138;23;20008;-95
2023/12/27 06:16:32;;;;;;;3.25;1.63;;;;;;;;;;6221373;23;20011;-95
2023/12/27 06:19:00;;;;;;;3.95;1.63;;;;;;;;;;6248122;23;20019;-95
2023/12/27 06:21:30;;;;;;;3.97;1.60;;;;;;;;;;6221473;23;20027;-95
2023/12/27 06:23:56;;;;;;;1.80;1.48;;;;;;;;;;6221469;23;20095;-94
2023/12/27 06:26:25;;;;;;;2.45;1.70;;;;;;;;;;6221574;23;20004;-96
2023/12/27 06:28:54;;;;;;;7.75;1.80;;;;;;;;;;6221853;23;20004;-95
2023/12/27 06:31:28;;;;;;;3.63;1.58;;;;;;;;;;6220950;23;20007;-93
2023/12/27 06:36:57;;;;;;;2.63;1.48;;;;;;;;;;6248585;23;20058;-94
2023/12/27 06:39:29;;;;;;;2.65;1.80;;;;;;;;;;6223097;23;20062;-94
2023/12/27 06:41:59;;;;;;;2.70;1.60;;;;;;;;;;6221941;23;20000;-96
2023/12/27 06:44:25;;;;;;;2.97;1.58;;;;;;;;;;6222879;23;20004;-96
2023/12/27 06:47:24;;;;;;;4.57;1.60;;;;;;;;;;6222943;23;20079;-96
2023/12/27 06:49:53;;;;;;;4.15;1.65;;;;;;;;;;6185169;23;20004;-96
2023/12/27 06:52:22;;;;;;;3.45;1.80;;;;;;;;;;6223019;23;20004;-96
2023/12/27 06:54:53;;;;;;;3.35;1.40;;;;;;;;;;6223030;23;20392;-96
2023/12/27 06:57:42;;;;;;;3.05;1.80;;;;;;;;;;6222462;23;20311;-96
2023/12/27 07:00:10;;;;;;;4.30;1.95;;;;;;;;;;6222994;23;20008;-96
2023/12/27 07:02:38;;;;;;;3.95;2.65;;;;;;;;;;6199413;23;20012;-96
2023/12/27 07:05:17;;;;;;;5.32;2.50;;;;;;;;;;6222572;23;20012;-95
2023/12/27 07:07:46;;;;;;;7.10;2.63;;;;;;;;;;6221623;23;20016;-96
2023/12/27 07:13:38;;;;;;;2.65;1.58;;;;;;;;;;6250353;23;20019;-96
2023/12/27 07:16:05;;;;;;;4.40;1.88;;;;;;;;;;6224377;23;20337;-96
2023/12/27 07:18:34;;;;;;;5.75;2.60;;;;;;;;;;6223465;23;20016;-96
2023/12/27 07:21:07;;;;;;;4.40;2.42;;;;;;;;;;6224048;23;20083;-96
2023/12/27 07:26:12;;;;;;;6.50;3.00;;;;;;;;;;6267859;22;20302;-94
2023/12/27 07:28:57;;;;;;;5.05;3.60;;;;;;;;;;6248667;23;20004;-96
2023/12/27 07:31:23;;;;;;;4.38;2.97;;;;;;;;;;6248804;23;20011;-96
2023/12/27 07:33:59;;;;;;;5.47;3.13;;;;;;;;;;6248807;23;20000;-93
2023/12/27 07:36:28;;;;;;;4.25;3.47;;;;;;;;;;6247960;23;20008;-95
2023/12/27 07:38:56;;;;;;;4.53;3.70;;;;;;;;;;6252300;23;20016;-96
2023/12/27 07:41:23;;;;;;;9.10;3.78;;;;;;;;;;6254056;23;20054;-96
2023/12/27 07:43:49;;;;;;;8.63;3.42;;;;;;;;;;6252743;23;20091;-94
2023/12/27 07:46:21;;;;;;;8.45;2.40;;;;;;;;;;6252667;23;19997;-94
2023/12/27 07:48:56;;;;;;;14.07;2.97;;;;;;;;;;6251917;23;20005;-96
2023/12/27 07:51:23;;;;;;;5.95;2.25;;;;;;;;;;6250883;23;20342;-95
2023/12/27 07:53:57;;;;;;;4.50;2.88;;;;;;;;;;6250067;23;20004;-94
2023/12/27 07:56:27;;;;;;;4.15;2.58;;;;;;;;;;6251148;23;20008;-96
2023/12/27 07:58:57;;;;;;;3.65;2.30;;;;;;;;;;6256572;22;20022;-95
2023/12/27 08:01:23;;;;;;;4.32;2.22;;;;;;;;;;6257691;22;20011;-95
2023/12/27 08:03:59;;;;;;;7.28;2.42;;;;;;;;;;6253645;22;20333;-93
2023/12/27 08:06:26;;;;;;;5.40;2.17;;;;;;;;;;6256997;22;20018;-96
2023/12/27 08:08:53;;;;;;;4.22;1.80;;;;;;;;;;6255247;22;20030;-96
2023/12/27 08:11:20;;;;;;;5.32;2.80;;;;;;;;;;6252674;22;20008;-96
2023/12/27 08:13:50;;;;;;;5.35;2.55;;;;;;;;;;6251415;22;20007;-96
2023/12/27 08:16:16;;;;;;;8.15;3.22;;;;;;;;;;6250703;22;20003;-96
2023/12/27 08:18:43;;;;;;;4.82;2.22;;;;;;;;;;6252000;22;20011;-96
2023/12/27 08:21:09;;;;;;;3.58;2.88;;;;;;;;;;6252736;22;20007;-95
2023/12/27 08:23:38;;;;;;;5.07;3.15;;;;;;;;;;6253935;22;20022;-95
2023/12/27 08:26:06;;;;;;;10.50;2.90;;;;;;;;;;6252148;22;20019;-95
2023/12/27 10:13:19;;;;;;;6.85;3.63;;;;;;;;;;6278437;22;20022;-95
2023/12/27 10:51:38;;;;;;;5.65;2.25;;;;;;;;;;6249239;22;20074;-94
2023/12/27 11:03:32;;;;;;;5.33;2.80;;;;;;;;;;6154600;23;20060;-95
2023/12/27 11:36:16;;;;;;;5.10;2.87;;;;;;;;;;6261291;22;20023;-93
2023/12/27 12:31:14;;;;;;;6.05;3.60;;;;;;;;;;6249483;23;20499;-96
2023/12/27 12:33:52;;;;;;;7.30;5.15;;;;;;;;;;6247539;23;20457;-95
2023/12/27 12:39:45;;;;;;;6.90;6.30;;;;;;;;;;6248965;23;20345;-93
2023/12/27 12:42:15;;;;;;;9.65;5.22;;;;;;;;;;6249965;23;20004;-95
2023/12/27 12:44:45;;;;;;;8.40;4.35;;;;;;;;;;6248071;23;20031;-96
2023/12/27 12:47:12;;;;;;;5.93;3.15;;;;;;;;;;6248510;23;20004;-96
2023/12/27 12:49:38;;;;;;;16.13;6.07;;;;;;;;;;6249315;23;20095;-95
2023/12/27 12:52:05;;;;;;;4.95;2.75;;;;;;;;;;6248626;23;20008;-96
2023/12/27 12:54:32;;;;;;;11.07;5.68;;;;;;;;;;6248491;23;20034;-95
2023/12/27 12:57:01;;;;;;;8.07;5.50;;;;;;;;;;6247303;23;20004;-96
2023/12/27 12:59:29;;;;;;;10.60;8.05;;;;;;;;;;6248168;23;20015;-92
2023/12/27 13:01:56;;;;;;;22.52;14.68;;;;;;;;;;6247891;23;20010;-96
2023/12/27 13:04:28;;;;;;;9.88;4.85;;;;;;;;;;6250154;23;20069;-96
2023/12/27 13:07:03;;;;;;;6.60;4.97;;;;;;;;;;6249623;23;20057;-96
2023/12/27 13:09:52;;;;;;;5.38;2.45;;;;;;;;;;6249455;23;20016;-96
2023/12/27 13:15:19;;;;;;;12.25;5.45;;;;;;;;;;6187171;23;20008;-96
2023/12/27 13:17:46;;;;;;;4.68;2.45;;;;;;;;;;6250844;23;20004;-96
2023/12/27 13:20:13;;;;;;;10.80;6.15;;;;;;;;;;6248497;23;20016;-96
2023/12/27 13:22:48;;;;;;;19.10;8.80;;;;;;;;;;6254214;23;20004;-93
2023/12/27 13:25:16;;;;;;;19.10;7.68;;;;;;;;;;6249667;23;20441;-96
2023/12/27 13:27:43;;;;;;;25.00;9.63;;;;;;;;;;6248189;23;20087;-96
2023/12/27 13:30:09;;;;;;;25.45;10.50;;;;;;;;;;6252089;23;20008;-96
2023/12/27 13:32:41;;;;;;;17.95;8.30;;;;;;;;;;6248223;23;20050;-95
2023/12/27 13:35:39;;;;;;;23.55;8.98;;;;;;;;;;6250661;23;20008;-94
2023/12/27 13:38:05;;;;;;;41.20;17.42;;;;;;;;;;6248619;23;20004;-95
2023/12/27 13:40:34;;;;;;;24.25;9.82;;;;;;;;;;6248381;23;20027;-95
2023/12/27 13:43:01;;;;;;;12.05;5.50;;;;;;;;;;6251396;22;20005;-95
2023/12/27 13:45:28;;;;;;;47.25;17.98;;;;;;;;;;6248047;23;20079;-96
2023/12/27 13:47:55;;;;;;;37.38;13.95;;;;;;;;;;6248907;23;20083;-95
2023/12/27 13:50:21;;;;;;;76.95;28.20;;;;;;;;;;6248896;23;20011;-95
2023/12/27 13:52:47;;;;;;;89.97;31.30;;;;;;;;;;6248842;23;20015;-95
2023/12/27 13:55:20;;;;;;;24.17;12.00;;;;;;;;;;6249466;23;20006;-96
2023/12/27 13:57:50;;;;;;;19.38;9.85;;;;;;;;;;6254224;23;20011;-94
2023/12/27 14:00:17;;;;;;;12.30;6.40;;;;;;;;;;6252048;23;20016;-96
2023/12/27 14:02:49;;;;;;;9.45;3.53;;;;;;;;;;6252395;23;20000;-96
2023/12/27 14:05:17;;;;;;;7.13;3.83;;;;;;;;;;6263762;22;20071;-95
2023/12/27 14:07:43;;;;;;;7.53;4.47;;;;;;;;;;6276511;22;20011;-96
2023/12/27 14:10:13;;;;;;;12.77;5.43;;;;;;;;;;6254031;22;20023;-96
2023/12/27 14:12:44;;;;;;;13.13;5.15;;;;;;;;;;6255512;22;20011;-96
2023/12/27 14:15:15;;;;;;;10.07;5.00;;;;;;;;;;6256322;22;20333;-93
2023/12/27 14:17:42;;;;;;;11.85;4.00;;;;;;;;;;6252332;22;20020;-95
2023/12/27 14:20:12;;;;;;;8.38;3.40;;;;;;;;;;6253245;22;20019;-96
2023/12/27 14:22:38;;;;;;;8.93;3.78;;;;;;;;;;6229355;22;20008;-96
2023/12/27 14:25:05;;;;;;;9.75;2.85;;;;;;;;;;6253479;22;20057;-96
2023/12/27 14:27:31;;;;;;;4.85;2.70;;;;;;;;;;6252582;22;20502;-95
2023/12/27 14:29:57;;;;;;;7.80;3.03;;;;;;;;;;6252916;22;20004;-96
2023/12/27 14:32:25;;;;;;;7.35;2.85;;;;;;;;;;6253800;22;20509;-95
2023/12/27 14:35:16;;;;;;;6.72;2.78;;;;;;;;;;6253080;22;20003;-92
2023/12/27 14:37:43;;;;;;;4.80;2.35;;;;;;;;;;6185364;22;20054;-95
2023/12/27 14:40:12;;;;;;;5.15;2.60;;;;;;;;;;6253172;22;20039;-94
2023/12/27 14:42:39;;;;;;;7.22;3.05;;;;;;;;;;6252871;22;20011;-94
2023/12/27 14:45:10;;;;;;;7.15;3.40;;;;;;;;;;6253312;22;20054;-92
2023/12/27 14:47:45;;;;;;;9.20;3.28;;;;;;;;;;6252676;22;20085;-95
2023/12/27 14:50:12;;;;;;;15.32;5.82;;;;;;;;;;6252588;22;20000;-95
2023/12/27 14:52:44;;;;;;;14.75;7.03;;;;;;;;;;6227837;22;20015;-92
2023/12/27 14:55:10;;;;;;;10.57;3.05;;;;;;;;;;6253166;22;20086;-94
2023/12/27 14:57:51;;;;;;;9.60;3.97;;;;;;;;;;6252773;22;20003;-96
2023/12/27 15:00:32;;;;;;;41.53;17.05;;;;;;;;;;6253566;22;20012;-95
2023/12/27 15:03:03;;;;;;;143.70;71.22;;;;;;;;;;6252837;22;20008;-93
2023/12/27 15:05:29;;;;;;;24.48;9.93;;;;;;;;;;6253452;22;20409;-94
2023/12/27 15:07:58;;;;;;;50.80;27.17;;;;;;;;;;6250901;22;20003;-95
2023/12/27 15:10:46;;;;;;;26.60;10.07;;;;;;;;;;6255980;22;20011;-94
2023/12/27 15:13:13;;;;;;;13.27;6.22;;;;;;;;;;6255338;22;20004;-95
2023/12/27 15:15:42;;;;;;;13.13;5.43;;;;;;;;;;6229500;22;20023;-96
2023/12/27 15:18:18;;;;;;;14.52;6.13;;;;;;;;;;6253205;22;20441;-93
2023/12/27 15:20:45;;;;;;;16.92;6.32;;;;;;;;;;6252988;22;20007;-96
2023/12/27 15:23:29;;;;;;;14.90;8.15;;;;;;;;;;6215507;23;20063;-95
2023/12/27 15:25:55;;;;;;;50.78;21.17;;;;;;;;;;6191916;23;20008;-94
2023/12/27 15:28:24;;;;;;;61.40;27.20;;;;;;;;;;6191562;23;20019;-96
2023/12/27 15:30:53;;;;;;;49.80;20.70;;;;;;;;;;6190283;23;20064;-95
2023/12/27 15:33:19;;;;;;;28.60;12.40;;;;;;;;;;6183996;23;20009;-95
2023/12/27 15:35:46;;;;;;;29.52;11.52;;;;;;;;;;6191773;23;20039;-95
2023/12/27 15:38:12;;;;;;;64.63;26.35;;;;;;;;;;6192510;23;20047;-94
2023/12/27 15:40:44;;;;;;;69.43;28.23;;;;;;;;;;6192188;23;20000;-96
2023/12/27 15:43:10;;;;;;;67.45;27.52;;;;;;;;;;6193265;23;20000;-94
2023/12/27 15:45:36;;;;;;;61.85;24.60;;;;;;;;;;6215819;23;20007;-94
2023/12/27 15:48:12;;;;;;;60.15;25.15;;;;;;;;;;6214347;23;20012;-92
2023/12/27 15:50:41;;;;;;;54.42;21.80;;;;;;;;;;6184398;23;20035;-94
2023/12/27 15:53:08;;;;;;;92.50;35.08;;;;;;;;;;6196705;22;20414;-96
2023/12/27 15:55:34;;;;;;;99.60;37.05;;;;;;;;;;6253293;22;20003;-96
2023/12/27 15:58:00;;;;;;;90.97;37.38;;;;;;;;;;6252647;22;20004;-94
2023/12/27 16:00:26;;;;;;;82.10;34.53;;;;;;;;;;6252751;22;20012;-95
2023/12/27 16:02:55;;;;;;;68.95;28.90;;;;;;;;;;6252666;22;20058;-94
2023/12/27 16:05:22;;;;;;;60.55;26.90;;;;;;;;;;6252773;22;20015;-94
2023/12/27 16:07:48;;;;;;;64.75;27.52;;;;;;;;;;6251991;22;19999;-94
2023/12/27 16:10:16;;;;;;;57.50;25.90;;;;;;;;;;6252788;22;20007;-96
2023/12/27 16:12:46;;;;;;;69.20;29.08;;;;;;;;;;6253126;22;20007;-95
2023/12/27 16:15:16;;;;;;;77.13;32.05;;;;;;;;;;6253165;22;20091;-95
2023/12/27 16:17:42;;;;;;;77.90;32.45;;;;;;;;;;6252750;22;20008;-95
2023/12/27 16:26:16;;;;;;;50.17;20.50;;;;;;;;;;6274965;22;20472;-95
2023/12/27 16:28:46;;;;;;;48.90;21.73;;;;;;;;;;6245753;23;20004;-96
2023/12/27 16:31:18;;;;;;;51.20;20.80;;;;;;;;;;6221860;23;20503;-94
2023/12/27 16:33:49;;;;;;;41.42;19.17;;;;;;;;;;6223021;23;20448;-94
2023/12/27 16:36:16;;;;;;;33.55;17.30;;;;;;;;;;6222149;23;20006;-96
2023/12/27 16:38:42;;;;;;;39.33;17.77;;;;;;;;;;6221718;23;20019;-96
2023/12/27 16:41:14;;;;;;;26.35;12.93;;;;;;;;;;6222997;23;20011;-92
2023/12/27 16:43:45;;;;;;;29.92;15.90;;;;;;;;;;6223755;23;20004;-94
2023/12/27 16:46:12;;;;;;;28.50;13.13;;;;;;;;;;6224007;23;20524;-94
2023/12/27 16:48:42;;;;;;;25.92;12.80;;;;;;;;;;6189632;23;20006;-95
2023/12/27 16:51:11;;;;;;;19.80;10.32;;;;;;;;;;6224211;23;20103;-92
2023/12/27 16:53:41;;;;;;;25.33;10.60;;;;;;;;;;6250424;23;20000;-95
2023/12/27 16:56:14;;;;;;;20.52;11.18;;;;;;;;;;6223720;23;20015;-95
2023/12/27 16:58:44;;;;;;;19.33;10.82;;;;;;;;;;6250057;23;20019;-94
2023/12/27 17:01:10;;;;;;;23.17;11.45;;;;;;;;;;6224370;23;20036;-95
2023/12/27 17:06:41;;;;;;;21.65;11.77;;;;;;;;;;6250467;23;20011;-94
2023/12/27 17:09:12;;;;;;;29.95;13.88;;;;;;;;;;6223609;23;20004;-95
2023/12/27 17:11:42;;;;;;;27.20;13.00;;;;;;;;;;6221899;23;20016;-95
2023/12/27 17:14:14;;;;;;;38.22;18.42;;;;;;;;;;6223754;23;20008;-95
2023/12/27 17:16:40;;;;;;;31.08;15.25;;;;;;;;;;6224514;23;20011;-96
2023/12/27 17:19:12;;;;;;;23.73;12.88;;;;;;;;;;6198002;23;20016;-93
2023/12/27 17:21:39;;;;;;;30.15;14.55;;;;;;;;;;6224461;23;20000;-95
2023/12/27 17:24:05;;;;;;;28.55;14.10;;;;;;;;;;6245493;22;20027;-94
2023/12/27 17:26:32;;;;;;;26.95;13.32;;;;;;;;;;6279996;22;19988;-94
2023/12/27 17:28:58;;;;;;;27.85;13.75;;;;;;;;;;6257443;22;20007;-93
2023/12/27 17:31:28;;;;;;;30.50;16.55;;;;;;;;;;6257072;22;20007;-94
2023/12/27 17:33:54;;;;;;;32.45;16.02;;;;;;;;;;6258346;22;20000;-95
2023/12/27 17:36:21;;;;;;;30.65;16.13;;;;;;;;;;6254805;22;20007;-94
2023/12/27 17:38:47;;;;;;;34.60;17.02;;;;;;;;;;6253797;22;20011;-94
2023/12/27 17:41:13;;;;;;;32.92;16.98;;;;;;;;;;6252847;22;20004;-94
2023/12/27 17:43:40;;;;;;;38.53;20.42;;;;;;;;;;6253599;22;20007;-95
2023/12/27 17:46:07;;;;;;;33.53;20.33;;;;;;;;;;6255183;22;20003;-95
2023/12/27 17:48:38;;;;;;;40.75;21.42;;;;;;;;;;6252460;22;19995;-95
2023/12/27 17:51:04;;;;;;;37.70;20.52;;;;;;;;;;6256108;22;20014;-96
2023/12/27 17:53:36;;;;;;;39.38;19.63;;;;;;;;;;6251502;22;20004;-94
2023/12/27 17:56:14;;;;;;;34.97;18.70;;;;;;;;;;6251693;22;20004;-93
2023/12/27 17:58:40;;;;;;;39.00;19.23;;;;;;;;;;6252242;22;20007;-95
2023/12/27 18:01:11;;;;;;;28.75;16.60;;;;;;;;;;6251830;22;20004;-94
2023/12/27 18:03:40;;;;;;;33.30;17.35;;;;;;;;;;6252003;22;20031;-95
2023/12/27 18:06:14;;;;;;;37.80;18.75;;;;;;;;;;6253743;22;20067;-94
2023/12/27 18:08:44;;;;;;;31.42;16.65;;;;;;;;;;6253375;22;20003;-95
2023/12/27 18:11:18;;;;;;;28.75;15.82;;;;;;;;;;6252510;22;19999;-96
2023/12/27 18:13:48;;;;;;;29.92;13.52;;;;;;;;;;6251604;22;20459;-95
2023/12/27 18:16:17;;;;;;;26.27;13.98;;;;;;;;;;6251736;22;20053;-95
2023/12/27 18:18:44;;;;;;;29.10;13.85;;;;;;;;;;6251527;22;20004;-95
2023/12/27 18:21:11;;;;;;;23.05;13.73;;;;;;;;;;6252106;22;20025;-95
2023/12/27 18:23:37;;;;;;;37.40;14.05;;;;;;;;;;6252129;22;20027;-96
2023/12/27 18:26:03;;;;;;;23.90;12.55;;;;;;;;;;6251682;22;20027;-93
2023/12/27 18:28:33;;;;;;;25.17;12.93;;;;;;;;;;6251977;22;20000;-95
2023/12/27 18:30:59;;;;;;;25.52;12.98;;;;;;;;;;6251868;22;20394;-96
2023/12/27 18:33:25;;;;;;;22.80;12.88;;;;;;;;;;6252083;22;20004;-95
2023/12/27 18:35:53;;;;;;;26.40;12.85;;;;;;;;;;6251633;22;20003;-93
2023/12/27 18:38:22;;;;;;;24.92;12.55;;;;;;;;;;6251616;22;20007;-93
2023/12/27 18:40:48;;;;;;;22.48;12.50;;;;;;;;;;6251552;22;20014;-93
2023/12/27 18:43:14;;;;;;;25.55;13.20;;;;;;;;;;6251842;22;20050;-93
2023/12/27 18:45:41;;;;;;;30.35;14.00;;;;;;;;;;6252168;22;20090;-95
2023/12/27 18:48:08;;;;;;;23.25;13.27;;;;;;;;;;6254283;22;20010;-92
2023/12/27 18:50:35;;;;;;;28.20;14.30;;;;;;;;;;6251907;22;20292;-94
2023/12/27 18:53:02;;;;;;;29.20;15.55;;;;;;;;;;6251450;22;20008;-93
2023/12/27 18:55:28;;;;;;;31.35;16.92;;;;;;;;;;6252074;22;20004;-93
2023/12/27 18:57:57;;;;;;;31.92;17.63;;;;;;;;;;6252792;22;20007;-93
2023/12/27 19:00:23;;;;;;;33.05;17.10;;;;;;;;;;6253318;22;20012;-95
2023/12/27 19:02:49;;;;;;;33.17;16.05;;;;;;;;;;6266835;22;19988;-92
2023/12/27 19:05:15;;;;;;;25.35;13.35;;;;;;;;;;6278712;22;20063;-94
2023/12/27 19:07:42;;;;;;;28.52;14.55;;;;;;;;;;6259062;22;20023;-95
2023/12/27 19:10:08;;;;;;;28.33;14.52;;;;;;;;;;6251480;22;20007;-95
2023/12/27 19:12:34;;;;;;;31.92;16.23;;;;;;;;;;6252222;22;20000;-93
2023/12/27 19:15:00;;;;;;;35.78;16.92;;;;;;;;;;6253349;22;20011;-94
2023/12/27 19:17:27;;;;;;;27.77;15.60;;;;;;;;;;6250918;22;20023;-96
2023/12/27 19:19:53;;;;;;;33.17;16.98;;;;;;;;;;6250883;22;20011;-96
2023/12/27 19:22:19;;;;;;;29.58;15.43;;;;;;;;;;6251176;22;20364;-95
2023/12/27 19:24:46;;;;;;;30.70;16.05;;;;;;;;;;6251881;22;20031;-93
2023/12/27 19:27:12;;;;;;;24.08;14.10;;;;;;;;;;6255320;22;20004;-95
2023/12/27 19:29:38;;;;;;;24.17;12.77;;;;;;;;;;6248274;22;20004;-94
2023/12/27 19:32:05;;;;;;;26.92;13.57;;;;;;;;;;6252597;22;20004;-94
2023/12/27 19:34:31;;;;;;;28.83;14.65;;;;;;;;;;6251929;22;20011;-95
2023/12/27 19:37:00;;;;;;;26.65;12.48;;;;;;;;;;6252122;22;20034;-94
2023/12/27 19:39:30;;;;;;;25.63;12.88;;;;;;;;;;6251600;22;20011;-94
2023/12/27 19:41:57;;;;;;;22.92;13.40;;;;;;;;;;6250991;22;19999;-94
2023/12/27 19:44:23;;;;;;;18.95;11.13;;;;;;;;;;6250856;22;20090;-94
2023/12/27 19:46:50;;;;;;;21.17;11.68;;;;;;;;;;6250639;22;20006;-94
2023/12/27 19:49:19;;;;;;;21.17;12.05;;;;;;;;;;6250989;22;20057;-94